createdAt,value
2019-02-06T00:01:02.837Z,10.60
2019-02-06T00:03:32.979Z,9.20
2019-02-06T00:06:03.179Z,9.30
2019-02-06T00:08:33.364Z,9.43
2019-02-06T00:11:03.878Z,10.37
2019-02-06T00:13:34.368Z,8.40
2019-02-06T00:16:07.868Z,9.77
2019-02-06T00:18:38.217Z,9.10
2019-02-06T00:21:08.801Z,8.57
2019-02-06T00:23:38.979Z,8.23
2019-02-06T00:26:09.321Z,8.47
2019-02-06T00:28:39.475Z,7.87
2019-02-06T00:31:09.998Z,8.43
2019-02-06T00:33:40.242Z,9.60
2019-02-06T00:36:10.803Z,8.50
2019-02-06T00:38:41.174Z,9.70
2019-02-06T00:41:11.729Z,9.30
2019-02-06T00:43:41.872Z,9.13
2019-02-06T00:46:12.063Z,9.23
2019-02-06T00:48:43.301Z,9.70
2019-02-06T00:51:14.683Z,9.50
2019-02-06T00:53:44.944Z,9.40
2019-02-06T00:56:15.404Z,9.97
2019-02-06T00:58:45.570Z,9.77
2019-02-06T01:01:15.971Z,10.10
2019-02-06T01:03:46.208Z,9.00
2019-02-06T01:06:16.492Z,9.00
2019-02-06T01:08:47.320Z,9.57
2019-02-06T01:11:17.918Z,9.73
2019-02-06T01:13:48.164Z,10.17
2019-02-06T01:16:18.403Z,9.43
2019-02-06T01:18:48.569Z,9.60
2019-02-06T01:21:18.796Z,9.10
2019-02-06T01:23:48.936Z,9.07
2019-02-06T01:26:19.117Z,9.57
2019-02-06T01:28:49.449Z,9.10
2019-02-06T01:31:25.390Z,9.13
2019-02-06T01:33:55.605Z,8.53
2019-02-06T01:36:26.665Z,10.48
2019-02-06T01:38:57.028Z,8.60
2019-02-06T01:41:27.297Z,9.83
2019-02-06T01:43:57.437Z,8.30
2019-02-06T01:46:27.710Z,9.37
2019-02-06T01:48:58.245Z,9.27
2019-02-06T01:51:28.878Z,8.77
2019-02-06T01:53:59.123Z,8.30
2019-02-06T01:56:29.308Z,9.63
2019-02-06T01:58:59.495Z,9.27
2019-02-06T02:01:29.863Z,9.30
2019-02-06T02:04:00.019Z,9.80
2019-02-06T02:06:30.536Z,8.30
2019-02-06T02:09:01.787Z,8.70
2019-02-06T02:11:33.214Z,8.20
2019-02-06T02:14:03.484Z,8.73
2019-02-06T02:16:33.749Z,8.97
2019-02-06T02:19:04.874Z,8.70
2019-02-06T02:21:35.170Z,8.70
2019-02-06T02:24:06.460Z,9.67
2019-02-06T02:26:36.674Z,8.27
2019-02-06T02:29:06.827Z,7.93
2019-02-06T02:31:36.975Z,8.10
2019-02-06T02:34:07.080Z,7.30
2019-02-06T02:36:37.249Z,8.13
2019-02-06T02:39:09.947Z,9.00
2019-02-06T02:41:40.326Z,8.45
2019-02-06T02:44:10.531Z,9.37
2019-02-06T02:46:41.140Z,8.80
2019-02-06T02:49:11.292Z,7.93
2019-02-06T02:51:44.457Z,9.27
2019-02-06T02:54:14.463Z,9.20
2019-02-06T02:56:44.783Z,8.97
2019-02-06T02:59:15.809Z,8.93
2019-02-06T03:01:54.051Z,8.97
2019-02-06T03:04:28.926Z,9.43
2019-02-06T03:06:59.085Z,8.30
2019-02-06T03:09:29.283Z,9.90
2019-02-06T03:11:59.587Z,9.10
2019-02-06T03:14:30.049Z,9.30
2019-02-06T03:17:03.171Z,9.80
2019-02-06T03:19:32.869Z,8.47
2019-02-06T03:22:03.453Z,8.70
2019-02-06T03:24:34.241Z,8.77
2019-02-06T03:27:04.397Z,9.10
2019-02-06T03:29:34.858Z,8.30
2019-02-06T03:32:04.994Z,8.47
2019-02-06T03:34:35.361Z,9.17
2019-02-06T03:37:05.476Z,8.93
2019-02-06T03:39:36.125Z,8.30
2019-02-06T03:42:06.579Z,9.60
2019-02-06T03:44:36.769Z,8.97
2019-02-06T03:47:07.008Z,8.10
2019-02-06T03:49:37.262Z,9.37
2019-02-06T03:52:07.511Z,8.33
2019-02-06T03:54:37.666Z,8.20
2019-02-06T03:57:07.986Z,7.40
2019-02-06T03:59:38.132Z,8.50
2019-02-06T04:02:08.285Z,8.57
2019-02-06T04:04:38.499Z,9.50
2019-02-06T04:07:08.937Z,7.90
2019-02-06T04:09:39.213Z,7.67
2019-02-06T04:12:10.007Z,7.63
2019-02-06T04:14:40.308Z,7.57
2019-02-06T04:17:10.596Z,8.33
2019-02-06T04:19:40.783Z,9.67
2019-02-06T04:22:11.511Z,7.83
2019-02-06T04:24:42.031Z,8.50
2019-02-06T04:27:12.185Z,7.23
2019-02-06T04:29:43.072Z,8.55
2019-02-06T04:32:13.595Z,8.30
2019-02-06T04:34:43.758Z,7.77
2019-02-06T04:37:13.894Z,7.67
2019-02-06T04:39:44.194Z,9.00
2019-02-06T04:42:14.487Z,9.10
2019-02-06T04:44:44.774Z,8.15
2019-02-06T04:47:15.040Z,7.60
2019-02-06T04:49:45.806Z,9.57
2019-02-06T04:52:16.243Z,8.17
2019-02-06T04:54:46.507Z,8.85
2019-02-06T04:57:16.742Z,8.23
2019-02-06T04:59:46.916Z,7.77
2019-02-06T05:02:17.187Z,10.20
2019-02-06T05:04:47.371Z,8.83
2019-02-06T05:07:19.757Z,8.43
2019-02-06T05:09:50.596Z,7.22
2019-02-06T05:12:20.870Z,8.50
2019-02-06T05:14:51.055Z,7.33
2019-02-06T05:17:22.153Z,8.40
2019-02-06T05:19:52.405Z,8.13
2019-02-06T05:22:22.563Z,8.20
2019-02-06T05:24:52.760Z,8.38
2019-02-06T05:27:22.930Z,9.13
2019-02-06T05:29:53.573Z,9.47
2019-02-06T05:32:24.271Z,8.83
2019-02-06T05:34:54.433Z,8.77
2019-02-06T05:37:32.090Z,8.67
2019-02-06T05:39:56.683Z,8.20
2019-02-06T05:42:27.012Z,8.53
2019-02-06T05:44:57.184Z,8.50
2019-02-06T05:47:28.391Z,9.60
2019-02-06T05:49:58.643Z,8.17
2019-02-06T05:52:28.851Z,9.10
2019-02-06T05:54:59.019Z,9.33
2019-02-06T05:57:29.331Z,9.03
2019-02-06T06:00:00.615Z,9.00
2019-02-06T06:02:31.141Z,10.20
2019-02-06T06:05:01.544Z,9.93
2019-02-06T06:07:44.141Z,11.87
2019-02-06T06:10:04.813Z,10.77
2019-02-06T06:12:35.142Z,10.47
2019-02-06T06:15:06.321Z,11.17
2019-02-06T06:17:36.778Z,9.40
2019-02-06T06:20:08.671Z,12.10
2019-02-06T06:22:38.964Z,11.03
2019-02-06T06:25:10.248Z,10.90
2019-02-06T06:27:40.488Z,11.43
2019-02-06T06:30:13.282Z,10.50
2019-02-06T06:32:43.605Z,10.50
2019-02-06T06:35:14.496Z,10.45
2019-02-06T06:37:57.078Z,11.67
2019-02-06T06:40:19.743Z,10.80
2019-02-06T06:42:50.399Z,11.10
2019-02-06T06:45:22.218Z,11.53
2019-02-06T06:47:52.665Z,11.50
2019-02-06T06:50:24.330Z,11.33
2019-02-06T06:52:54.756Z,11.80
2019-02-06T06:55:25.284Z,11.50
2019-02-06T06:57:55.417Z,10.37
2019-02-06T07:00:27.360Z,11.07
2019-02-06T07:02:57.593Z,11.70
2019-02-06T07:05:27.795Z,11.30
2019-02-06T07:08:09.056Z,10.60
2019-02-06T07:10:31.034Z,9.60
2019-02-06T07:13:01.424Z,9.83
2019-02-06T07:15:36.123Z,11.27
2019-02-06T07:18:06.579Z,9.47
2019-02-06T07:20:36.927Z,8.80
2019-02-06T07:23:07.293Z,8.90
2019-02-06T07:25:37.981Z,9.03
2019-02-06T07:28:08.276Z,8.83
2019-02-06T07:30:38.512Z,9.97
2019-02-06T07:33:08.682Z,8.13
2019-02-06T07:35:39.328Z,8.60
2019-02-06T07:38:22.338Z,10.53
2019-02-06T07:40:42.102Z,10.17
2019-02-06T07:43:12.356Z,9.10
2019-02-06T07:45:42.558Z,9.03
2019-02-06T07:48:12.746Z,9.00
2019-02-06T07:50:43.853Z,11.03
2019-02-06T07:53:14.329Z,13.20
2019-02-06T07:55:44.637Z,11.43
2019-02-06T07:58:14.943Z,11.70
2019-02-06T08:00:45.112Z,11.40
2019-02-06T08:03:15.644Z,11.57
2019-02-06T08:05:46.174Z,11.73
2019-02-06T08:08:16.540Z,11.53
2019-02-06T08:10:46.686Z,20.57
2019-02-06T08:13:17.160Z,12.97
2019-02-06T08:15:47.367Z,13.60
2019-02-06T08:18:18.305Z,13.60
2019-02-06T08:20:48.610Z,12.30
2019-02-06T08:23:19.387Z,14.25
2019-02-06T08:25:49.736Z,13.07
2019-02-06T08:28:20.247Z,12.73
2019-02-06T08:30:50.399Z,13.60
2019-02-06T08:33:20.925Z,13.28
2019-02-06T08:35:51.265Z,15.67
2019-02-06T08:38:21.650Z,13.97
2019-02-06T08:40:51.828Z,14.68
2019-02-06T08:43:22.290Z,15.13
2019-02-06T08:45:54.620Z,24.27
2019-02-06T08:48:25.106Z,15.90
2019-02-06T08:50:55.533Z,14.85
2019-02-06T08:53:25.883Z,15.00
2019-02-06T08:55:56.071Z,14.97
2019-02-06T08:58:26.246Z,14.80
2019-02-06T09:00:56.574Z,15.30
2019-02-06T09:03:26.942Z,14.27
2019-02-06T09:05:57.094Z,15.67
2019-02-06T09:08:27.364Z,16.10
2019-02-06T09:10:57.585Z,14.57
2019-02-06T09:13:28.091Z,15.20
2019-02-06T09:15:58.825Z,14.00
2019-02-06T09:18:29.474Z,15.20
2019-02-06T09:20:59.724Z,15.63
2019-02-06T09:23:30.147Z,15.00
2019-02-06T09:26:00.343Z,14.37
2019-02-06T09:28:31.841Z,14.80
2019-02-06T09:31:02.351Z,14.20
2019-02-06T09:33:32.746Z,14.63
2019-02-06T09:36:03.267Z,14.37
2019-02-06T09:38:33.646Z,13.90
2019-02-06T09:41:04.547Z,14.07
2019-02-06T09:43:34.790Z,13.60
2019-02-06T09:46:05.708Z,14.40
2019-02-06T09:48:36.123Z,13.97
2019-02-06T09:51:06.312Z,14.67
2019-02-06T09:53:36.620Z,14.13
2019-02-06T09:56:06.944Z,15.20
2019-02-06T09:58:37.755Z,14.67
2019-02-06T10:01:08.123Z,15.20
2019-02-06T10:03:38.406Z,15.37
2019-02-06T10:06:08.646Z,15.10
2019-02-06T10:08:38.812Z,14.95
2019-02-06T10:11:09.679Z,14.70
2019-02-06T10:13:40.259Z,15.90
2019-02-06T10:16:10.972Z,15.97
2019-02-06T10:18:41.337Z,14.20
2019-02-06T10:21:11.786Z,14.70
2019-02-06T10:23:42.524Z,14.07
2019-02-06T10:26:13.059Z,12.90
2019-02-06T10:28:43.257Z,13.23
2019-02-06T10:31:13.707Z,14.10
2019-02-06T10:33:44.494Z,14.30
2019-02-06T10:36:15.318Z,12.90
2019-02-06T10:38:46.076Z,12.70
2019-02-06T10:41:16.381Z,13.83
2019-02-06T10:43:47.177Z,12.77
2019-02-06T10:46:18.318Z,11.23
2019-02-06T10:48:50.184Z,13.00
2019-02-06T10:51:20.667Z,11.50
2019-02-06T10:53:51.177Z,11.50
2019-02-06T10:56:21.469Z,11.87
2019-02-06T10:58:52.308Z,10.03
2019-02-06T11:01:27.182Z,11.57
2019-02-06T11:03:57.622Z,12.83
2019-02-06T11:06:27.793Z,12.10
2019-02-06T11:08:58.083Z,12.30
2019-02-06T11:11:28.480Z,12.30
2019-02-06T11:13:59.173Z,11.40
2019-02-06T11:16:29.471Z,11.20
2019-02-06T11:18:59.888Z,10.80
2019-02-06T11:21:30.118Z,11.27
2019-02-06T11:24:01.177Z,10.90
2019-02-06T11:26:31.562Z,9.60
2019-02-06T11:29:01.798Z,9.70
2019-02-06T11:31:31.971Z,21.37
2019-02-06T11:34:03.681Z,9.90
2019-02-06T11:36:34.963Z,10.17
2019-02-06T11:39:12.089Z,9.87
2019-02-06T11:41:42.512Z,8.23
2019-02-06T11:44:15.084Z,7.87
2019-02-06T11:46:45.577Z,8.87
2019-02-06T11:49:16.918Z,8.97
2019-02-06T11:51:47.167Z,8.67
2019-02-06T11:54:17.980Z,9.40
2019-02-06T11:56:48.318Z,8.37
2019-02-06T11:59:19.434Z,7.70
2019-02-06T12:01:52.637Z,15.87
2019-02-06T12:04:23.739Z,8.43
2019-02-06T12:06:53.973Z,9.03
2019-02-06T12:09:24.263Z,7.58
2019-02-06T12:11:54.469Z,7.03
2019-02-06T12:14:24.735Z,8.20
2019-02-06T12:16:55.028Z,8.55
2019-02-06T12:19:25.249Z,8.53
2019-02-06T12:21:55.410Z,9.93
2019-02-06T12:24:25.564Z,10.33
2019-02-06T12:26:56.428Z,9.80
2019-02-06T12:29:26.806Z,9.77
2019-02-06T12:31:57.007Z,10.97
2019-02-06T12:34:27.337Z,11.60
2019-02-06T12:36:57.510Z,11.20
2019-02-06T12:39:27.727Z,12.60
2019-02-06T12:41:58.853Z,11.50
2019-02-06T12:44:29.825Z,12.27
2019-02-06T12:47:01.312Z,11.70
2019-02-06T12:49:31.598Z,11.90
2019-02-06T12:52:02.103Z,12.10
2019-02-06T12:54:32.645Z,13.00
2019-02-06T12:57:02.992Z,13.20
2019-02-06T12:59:33.191Z,14.17
2019-02-06T13:02:03.828Z,12.27
2019-02-06T13:04:34.183Z,13.57
2019-02-06T13:07:04.621Z,12.50
2019-02-06T13:09:35.101Z,12.40
2019-02-06T13:12:09.499Z,11.40
2019-02-06T13:14:40.098Z,11.40
2019-02-06T13:17:10.333Z,11.87
2019-02-06T13:19:41.294Z,10.63
2019-02-06T13:22:13.581Z,10.20
2019-02-06T13:24:44.154Z,12.00
2019-02-06T13:27:14.881Z,12.43
2019-02-06T13:29:46.832Z,14.20
2019-02-06T13:32:17.255Z,12.70
2019-02-06T13:34:47.567Z,13.10
2019-02-06T13:37:17.904Z,12.57
2019-02-06T13:39:48.863Z,12.50
2019-02-06T13:42:19.223Z,13.03
2019-02-06T13:44:49.504Z,10.83
2019-02-06T13:47:20.057Z,10.20
2019-02-06T13:49:53.618Z,10.80
2019-02-06T13:52:24.894Z,11.50
2019-02-06T13:54:55.242Z,12.97
2019-02-06T13:57:33.586Z,14.40
2019-02-06T13:59:58.165Z,15.33
2019-02-06T14:02:28.821Z,16.27
2019-02-06T14:04:59.702Z,17.20
2019-02-06T14:07:30.117Z,15.63
2019-02-06T14:10:00.748Z,14.30
2019-02-06T14:12:31.179Z,13.90
2019-02-06T14:15:01.533Z,12.93
2019-02-06T14:17:31.921Z,12.10
2019-02-06T14:20:02.737Z,12.70
2019-02-06T14:22:33.443Z,12.43
2019-02-06T14:25:21.958Z,13.00
2019-02-06T14:28:06.973Z,10.17
2019-02-06T14:30:46.588Z,10.63
2019-02-06T14:33:40.299Z,10.93
2019-02-06T14:36:56.239Z,10.40
2019-02-06T14:39:48.428Z,10.30
2019-02-06T14:42:45.147Z,9.77
2019-02-06T14:46:02.328Z,10.20
2019-02-06T14:48:56.059Z,10.73
2019-02-06T14:52:03.164Z,10.30
2019-02-06T14:55:02.537Z,11.97
2019-02-06T14:58:15.564Z,11.80
2019-02-06T15:01:33.443Z,12.15
2019-02-06T15:04:39.996Z,13.87
2019-02-06T15:07:41.279Z,13.87
2019-02-06T15:10:48.032Z,13.85
2019-02-06T15:13:58.285Z,13.10
2019-02-06T15:17:05.760Z,11.83
2019-02-06T15:20:32.785Z,12.73
2019-02-06T15:23:38.057Z,13.07
2019-02-06T15:26:24.238Z,12.70
2019-02-06T15:29:16.833Z,12.80
2019-02-06T15:32:30.784Z,12.20
2019-02-06T15:35:40.745Z,14.00
2019-02-06T15:38:43.594Z,13.80
2019-02-06T15:41:33.923Z,14.03
2019-02-06T15:44:24.497Z,14.10
2019-02-06T15:47:33.093Z,13.10
2019-02-06T15:50:39.908Z,14.45
2019-02-06T15:53:42.694Z,13.90
2019-02-06T15:56:47.018Z,13.40
2019-02-06T15:59:42.847Z,12.50
2019-02-06T16:02:55.821Z,11.43
2019-02-06T16:06:11.541Z,13.80
2019-02-06T16:09:15.619Z,12.60
2019-02-06T16:12:17.954Z,14.00
2019-02-06T16:15:20.922Z,13.00
2019-02-06T16:18:47.640Z,12.27
2019-02-06T16:21:53.205Z,13.00
2019-02-06T16:24:57.390Z,12.00
2019-02-06T16:28:08.109Z,12.10
2019-02-06T16:30:54.296Z,12.53
2019-02-06T16:34:00.075Z,11.93
2019-02-06T16:36:53.737Z,13.30
2019-02-06T16:39:45.690Z,12.33
2019-02-06T16:42:51.806Z,12.77
2019-02-06T16:46:10.668Z,14.07
2019-02-06T16:49:55.853Z,30.97
2019-02-06T16:53:04.737Z,19.47
2019-02-06T16:56:25.882Z,16.00
2019-02-06T16:59:52.212Z,21.17
2019-02-06T17:02:53.024Z,13.70
2019-02-06T17:06:00.362Z,10.20
2019-02-06T17:09:01.553Z,13.10
2019-02-06T17:12:04.582Z,13.00
2019-02-06T17:15:20.220Z,12.90
2019-02-06T17:18:33.619Z,11.83
2019-02-06T17:21:14.840Z,11.57
2019-02-06T17:24:00.200Z,10.20
2019-02-06T17:27:14.664Z,10.70
2019-02-06T17:30:15.807Z,9.43
2019-02-06T17:33:21.125Z,11.13
2019-02-06T17:36:27.478Z,10.50
2019-02-06T17:39:42.848Z,9.80
2019-02-06T17:43:07.609Z,9.77
2019-02-06T17:46:18.863Z,10.08
2019-02-06T17:49:16.025Z,9.30
2019-02-06T17:52:10.452Z,10.47
2019-02-06T17:55:07.867Z,9.00
2019-02-06T17:57:38.361Z,8.80
2019-02-06T18:00:16.272Z,9.80
2019-02-06T18:02:49.209Z,10.17
2019-02-06T18:05:19.945Z,10.07
2019-02-06T18:07:50.652Z,10.40
2019-02-06T18:10:21.894Z,10.37
2019-02-06T18:12:53.322Z,11.35
2019-02-06T18:15:24.173Z,10.50
2019-02-06T18:17:55.673Z,13.25
2019-02-06T18:20:28.468Z,11.97
2019-02-06T18:22:59.179Z,9.30
2019-02-06T18:25:29.903Z,10.43
2019-02-06T18:28:00.329Z,9.80
2019-02-06T18:30:34.008Z,12.60
2019-02-06T18:33:05.265Z,13.20
2019-02-06T18:35:35.599Z,12.63
2019-02-06T18:38:07.817Z,13.13
2019-02-06T18:40:40.775Z,11.70
2019-02-06T18:43:11.164Z,11.63
2019-02-06T18:45:42.926Z,11.67
2019-02-06T18:48:13.597Z,28.33
2019-02-06T18:50:44.235Z,21.87
2019-02-06T18:53:15.131Z,12.97
2019-02-06T18:55:45.963Z,12.70
2019-02-06T18:58:16.797Z,10.87
2019-02-06T19:00:47.496Z,8.70
2019-02-06T19:03:20.624Z,8.50
2019-02-06T19:05:52.331Z,12.37
2019-02-06T19:08:23.054Z,12.63
2019-02-06T19:10:53.979Z,9.40
2019-02-06T19:13:24.328Z,9.10
2019-02-06T19:15:56.490Z,8.67
2019-02-06T19:18:26.747Z,7.73
2019-02-06T19:20:57.518Z,8.85
2019-02-06T19:23:27.861Z,9.73
2019-02-06T19:25:58.727Z,7.97
2019-02-06T19:28:29.081Z,9.40
2019-02-06T19:31:02.556Z,9.00
2019-02-06T19:33:32.853Z,10.13
2019-02-06T19:36:03.357Z,12.03
2019-02-06T19:38:33.930Z,14.60
2019-02-06T19:41:04.829Z,12.10
2019-02-06T19:43:44.073Z,12.80
2019-02-06T19:46:16.255Z,11.13
2019-02-06T19:48:49.608Z,10.47
2019-02-06T19:51:20.150Z,11.83
2019-02-06T19:53:51.090Z,10.57
2019-02-06T19:56:24.600Z,10.30
2019-02-06T19:58:54.902Z,11.53
2019-02-06T20:01:25.347Z,11.95
2019-02-06T20:03:55.643Z,12.50
2019-02-06T20:06:32.287Z,15.70
2019-02-06T20:09:15.265Z,15.73
2019-02-06T20:11:45.823Z,28.33
2019-02-06T20:14:16.360Z,26.50
2019-02-06T20:16:46.975Z,23.60
2019-02-06T20:19:20.479Z,13.97
2019-02-06T20:21:50.052Z,11.83
2019-02-06T20:24:20.326Z,10.27
2019-02-06T20:26:50.740Z,11.57
2019-02-06T20:29:21.638Z,12.00
2019-02-06T20:31:51.898Z,12.10
2019-02-06T20:34:22.373Z,10.83
2019-02-06T20:36:53.634Z,12.53
2019-02-06T20:39:24.382Z,41.20
2019-02-06T20:41:54.673Z,13.23
2019-02-06T20:44:25.186Z,14.58
2019-02-06T20:46:55.967Z,14.47
2019-02-06T20:49:26.562Z,15.10
2019-02-06T20:51:56.829Z,16.12
2019-02-06T20:54:27.788Z,15.40
2019-02-06T20:56:58.181Z,13.28
2019-02-06T20:59:28.889Z,13.07
2019-02-06T21:01:59.485Z,12.50
2019-02-06T21:04:30.235Z,10.77
2019-02-06T21:07:00.984Z,11.15
2019-02-06T21:09:31.736Z,11.10
2019-02-06T21:12:02.216Z,9.80
2019-02-06T21:14:33.034Z,10.93
2019-02-06T21:17:03.659Z,11.37
2019-02-06T21:19:34.450Z,10.97
2019-02-06T21:22:05.574Z,11.00
2019-02-06T21:24:35.948Z,9.10
2019-02-06T21:27:06.318Z,10.37
2019-02-06T21:29:36.719Z,9.60
2019-02-06T21:32:07.488Z,8.90
2019-02-06T21:34:37.872Z,9.40
2019-02-06T21:37:08.449Z,9.50
2019-02-06T21:39:39.078Z,10.93
2019-02-06T21:42:09.479Z,11.20
2019-02-06T21:44:39.741Z,11.27
2019-02-06T21:47:11.309Z,13.80
2019-02-06T21:49:41.851Z,15.00
2019-02-06T21:52:12.371Z,12.67
2019-02-06T21:54:43.024Z,11.47
2019-02-06T21:57:13.461Z,11.10
2019-02-06T21:59:43.693Z,13.93
2019-02-06T22:02:14.678Z,12.33
2019-02-06T22:04:47.652Z,12.37
2019-02-06T22:07:18.220Z,12.00
2019-02-06T22:09:48.494Z,11.50
2019-02-06T22:12:19.025Z,9.80
2019-02-06T22:14:49.470Z,10.13
2019-02-06T22:17:20.729Z,9.75
2019-02-06T22:19:51.094Z,10.93
2019-02-06T22:22:21.344Z,8.97
2019-02-06T22:24:52.229Z,8.73
2019-02-06T22:27:22.692Z,10.30
2019-02-06T22:29:52.979Z,10.07
2019-02-06T22:32:23.565Z,10.73
2019-02-06T22:34:54.004Z,9.03
2019-02-06T22:37:24.472Z,10.13
2019-02-06T22:39:54.778Z,10.93
2019-02-06T22:42:25.235Z,11.13
2019-02-06T22:44:55.850Z,9.90
2019-02-06T22:47:26.270Z,10.93
2019-02-06T22:49:57.544Z,10.50
2019-02-06T22:52:28.120Z,9.23
2019-02-06T22:54:58.751Z,10.20
2019-02-06T22:57:28.946Z,9.00
2019-02-06T23:00:00.203Z,10.10
2019-02-06T23:02:30.870Z,11.30
2019-02-06T23:05:01.317Z,12.17
2019-02-06T23:07:32.392Z,12.60
2019-02-06T23:10:02.679Z,16.20
2019-02-06T23:12:33.011Z,13.70
2019-02-06T23:15:03.239Z,12.07
2019-02-06T23:17:33.694Z,14.07
2019-02-06T23:20:04.441Z,19.60
2019-02-06T23:22:34.750Z,15.07
2019-02-06T23:25:06.052Z,12.63
2019-02-06T23:27:36.200Z,11.73
2019-02-06T23:30:07.420Z,12.20
2019-02-06T23:32:37.765Z,13.13
2019-02-06T23:35:08.402Z,12.67
2019-02-06T23:37:38.779Z,13.83
2019-02-06T23:40:09.940Z,14.10
2019-02-06T23:42:40.141Z,12.77
2019-02-06T23:45:11.951Z,13.77
2019-02-06T23:47:42.656Z,13.37
2019-02-06T23:50:13.569Z,12.13
2019-02-06T23:52:43.792Z,13.77
2019-02-06T23:55:14.124Z,13.70
2019-02-06T23:57:44.371Z,13.30
